sensor_id;sensor_type;location;lat;lon;timestamp;P1;durP1;ratioP1;P2;durP2;ratioP2
5475;SDS011;2760;50.000;9.194;2023-01-04T00:02:18;12.97;;;8.63;;
5475;SDS011;2760;50.000;9.194;2023-01-04T00:04:45;16.20;;;9.53;;
5475;SDS011;2760;50.000;9.194;2023-01-04T00:07:14;11.97;;;8.23;;
5475;SDS011;2760;50.000;9.194;2023-01-04T00:09:41;11.07;;;7.43;;
5475;SDS011;2760;50.000;9.194;2023-01-04T00:12:07;11.10;;;7.90;;
5475;SDS011;2760;50.000;9.194;2023-01-04T00:14:34;12.93;;;7.97;;
5475;SDS011;2760;50.000;9.194;2023-01-04T00:17:02;9.10;;;7.33;;
5475;SDS011;2760;50.000;9.194;2023-01-04T00:19:29;10.30;;;7.87;;
5475;SDS011;2760;50.000;9.194;2023-01-04T00:21:57;19.03;;;7.87;;
5475;SDS011;2760;50.000;9.194;2023-01-04T00:24:25;14.00;;;7.10;;
5475;SDS011;2760;50.000;9.194;2023-01-04T00:26:52;11.70;;;7.93;;
5475;SDS011;2760;50.000;9.194;2023-01-04T00:29:20;11.63;;;7.40;;
5475;SDS011;2760;50.000;9.194;2023-01-04T00:31:47;12.00;;;7.53;;
5475;SDS011;2760;50.000;9.194;2023-01-04T00:34:15;14.00;;;8.50;;
5475;SDS011;2760;50.000;9.194;2023-01-04T00:36:43;14.03;;;7.97;;
5475;SDS011;2760;50.000;9.194;2023-01-04T00:39:11;12.13;;;6.97;;
5475;SDS011;2760;50.000;9.194;2023-01-04T00:41:41;13.30;;;8.37;;
5475;SDS011;2760;50.000;9.194;2023-01-04T00:44:10;20.80;;;7.00;;
5475;SDS011;2760;50.000;9.194;2023-01-04T00:46:38;12.17;;;8.23;;
5475;SDS011;2760;50.000;9.194;2023-01-04T00:49:06;12.70;;;7.87;;
5475;SDS011;2760;50.000;9.194;2023-01-04T00:51:34;11.40;;;6.67;;
5475;SDS011;2760;50.000;9.194;2023-01-04T00:54:03;15.20;;;7.70;;
5475;SDS011;2760;50.000;9.194;2023-01-04T00:56:32;16.40;;;7.80;;
5475;SDS011;2760;50.000;9.194;2023-01-04T00:59:01;14.20;;;7.20;;
5475;SDS011;2760;50.000;9.194;2023-01-04T01:01:30;9.97;;;6.50;;
5475;SDS011;2760;50.000;9.194;2023-01-04T01:03:59;12.73;;;6.70;;
5475;SDS011;2760;50.000;9.194;2023-01-04T01:06:28;9.77;;;6.00;;
5475;SDS011;2760;50.000;9.194;2023-01-04T01:08:55;10.87;;;7.17;;
5475;SDS011;2760;50.000;9.194;2023-01-04T01:11:23;9.30;;;6.13;;
5475;SDS011;2760;50.000;9.194;2023-01-04T01:13:50;11.50;;;5.70;;
5475;SDS011;2760;50.000;9.194;2023-01-04T01:16:20;7.50;;;5.40;;
5475;SDS011;2760;50.000;9.194;2023-01-04T01:18:48;9.10;;;5.70;;
5475;SDS011;2760;50.000;9.194;2023-01-04T01:21:17;7.30;;;5.37;;
5475;SDS011;2760;50.000;9.194;2023-01-04T01:23:45;8.80;;;6.00;;
5475;SDS011;2760;50.000;9.194;2023-01-04T01:26:13;7.77;;;5.70;;
5475;SDS011;2760;50.000;9.194;2023-01-04T01:28:40;14.87;;;6.37;;
5475;SDS011;2760;50.000;9.194;2023-01-04T01:31:08;7.50;;;5.80;;
5475;SDS011;2760;50.000;9.194;2023-01-04T01:33:39;10.03;;;6.60;;
5475;SDS011;2760;50.000;9.194;2023-01-04T01:36:08;11.70;;;6.80;;
5475;SDS011;2760;50.000;9.194;2023-01-04T01:38:35;8.07;;;6.00;;
5475;SDS011;2760;50.000;9.194;2023-01-04T01:41:03;12.60;;;5.80;;
5475;SDS011;2760;50.000;9.194;2023-01-04T01:43:50;9.53;;;5.83;;
5475;SDS011;2760;50.000;9.194;2023-01-04T01:46:21;8.27;;;5.97;;
5475;SDS011;2760;50.000;9.194;2023-01-04T01:48:53;13.23;;;6.73;;
5475;SDS011;2760;50.000;9.194;2023-01-04T01:51:23;10.80;;;6.33;;
5475;SDS011;2760;50.000;9.194;2023-01-04T01:53:54;7.20;;;5.97;;
5475;SDS011;2760;50.000;9.194;2023-01-04T01:56:26;16.70;;;6.43;;
5475;SDS011;2760;50.000;9.194;2023-01-04T01:58:56;7.20;;;5.30;;
5475;SDS011;2760;50.000;9.194;2023-01-04T02:01:26;9.83;;;5.63;;
5475;SDS011;2760;50.000;9.194;2023-01-04T02:03:55;10.30;;;6.03;;
5475;SDS011;2760;50.000;9.194;2023-01-04T02:06:23;9.00;;;5.47;;
5475;SDS011;2760;50.000;9.194;2023-01-04T02:08:54;7.70;;;5.70;;
5475;SDS011;2760;50.000;9.194;2023-01-04T02:11:21;6.97;;;5.57;;
5475;SDS011;2760;50.000;9.194;2023-01-04T02:13:48;9.70;;;5.50;;
5475;SDS011;2760;50.000;9.194;2023-01-04T02:16:37;5.73;;;4.70;;
5475;SDS011;2760;50.000;9.194;2023-01-04T02:19:18;8.50;;;5.67;;
5475;SDS011;2760;50.000;9.194;2023-01-04T02:22:04;8.43;;;5.37;;
5475;SDS011;2760;50.000;9.194;2023-01-04T02:24:58;8.60;;;5.53;;
5475;SDS011;2760;50.000;9.194;2023-01-04T02:27:43;8.33;;;5.93;;
5475;SDS011;2760;50.000;9.194;2023-01-04T02:33:29;10.23;;;5.03;;
5475;SDS011;2760;50.000;9.194;2023-01-04T02:36:09;10.20;;;5.50;;
5475;SDS011;2760;50.000;9.194;2023-01-04T02:38:48;10.57;;;5.47;;
5475;SDS011;2760;50.000;9.194;2023-01-04T02:41:27;6.60;;;4.97;;
5475;SDS011;2760;50.000;9.194;2023-01-04T02:44:00;7.10;;;5.03;;
5475;SDS011;2760;50.000;9.194;2023-01-04T02:46:50;7.77;;;4.87;;
5475;SDS011;2760;50.000;9.194;2023-01-04T02:49:23;9.03;;;5.70;;
5475;SDS011;2760;50.000;9.194;2023-01-04T02:52:07;10.53;;;5.73;;
5475;SDS011;2760;50.000;9.194;2023-01-04T02:54:34;10.00;;;5.60;;
5475;SDS011;2760;50.000;9.194;2023-01-04T02:57:05;11.87;;;5.10;;
5475;SDS011;2760;50.000;9.194;2023-01-04T02:59:49;7.17;;;5.67;;
5475;SDS011;2760;50.000;9.194;2023-01-04T03:02:40;9.00;;;5.37;;
5475;SDS011;2760;50.000;9.194;2023-01-04T03:05:58;6.40;;;4.97;;
5475;SDS011;2760;50.000;9.194;2023-01-04T03:08:45;9.63;;;6.07;;
5475;SDS011;2760;50.000;9.194;2023-01-04T03:11:17;9.23;;;5.70;;
5475;SDS011;2760;50.000;9.194;2023-01-04T03:14:03;10.17;;;6.23;;
5475;SDS011;2760;50.000;9.194;2023-01-04T03:16:34;13.80;;;5.80;;
5475;SDS011;2760;50.000;9.194;2023-01-04T03:19:03;9.20;;;6.10;;
5475;SDS011;2760;50.000;9.194;2023-01-04T03:21:38;10.10;;;6.33;;
5475;SDS011;2760;50.000;9.194;2023-01-04T03:24:08;12.00;;;6.00;;
5475;SDS011;2760;50.000;9.194;2023-01-04T03:26:55;12.67;;;6.10;;
5475;SDS011;2760;50.000;9.194;2023-01-04T03:29:46;9.83;;;7.03;;
5475;SDS011;2760;50.000;9.194;2023-01-04T03:32:39;8.37;;;6.60;;
5475;SDS011;2760;50.000;9.194;2023-01-04T03:35:28;9.00;;;6.10;;
5475;SDS011;2760;50.000;9.194;2023-01-04T03:38:07;10.17;;;5.80;;
5475;SDS011;2760;50.000;9.194;2023-01-04T03:40:59;7.53;;;5.17;;
5475;SDS011;2760;50.000;9.194;2023-01-04T03:43:59;9.97;;;4.73;;
5475;SDS011;2760;50.000;9.194;2023-01-04T03:46:49;5.00;;;4.60;;
5475;SDS011;2760;50.000;9.194;2023-01-04T03:49:42;7.00;;;4.90;;
5475;SDS011;2760;50.000;9.194;2023-01-04T03:52:13;8.20;;;5.30;;
5475;SDS011;2760;50.000;9.194;2023-01-04T03:54:44;7.13;;;4.40;;
5475;SDS011;2760;50.000;9.194;2023-01-04T03:57:14;6.50;;;3.90;;
5475;SDS011;2760;50.000;9.194;2023-01-04T03:59:45;6.47;;;4.30;;
5475;SDS011;2760;50.000;9.194;2023-01-04T04:02:15;7.47;;;4.10;;
5475;SDS011;2760;50.000;9.194;2023-01-04T04:04:48;9.67;;;4.23;;
5475;SDS011;2760;50.000;9.194;2023-01-04T04:07:33;8.10;;;3.63;;
5475;SDS011;2760;50.000;9.194;2023-01-04T04:10:19;7.33;;;3.37;;
5475;SDS011;2760;50.000;9.194;2023-01-04T04:12:46;6.53;;;3.43;;
5475;SDS011;2760;50.000;9.194;2023-01-04T04:15:13;5.80;;;3.87;;
5475;SDS011;2760;50.000;9.194;2023-01-04T04:17:40;9.77;;;3.40;;
5475;SDS011;2760;50.000;9.194;2023-01-04T04:20:08;5.53;;;3.60;;
5475;SDS011;2760;50.000;9.194;2023-01-04T04:22:37;4.63;;;3.53;;
5475;SDS011;2760;50.000;9.194;2023-01-04T04:25:05;4.20;;;2.80;;
5475;SDS011;2760;50.000;9.194;2023-01-04T04:27:34;5.80;;;3.37;;
5475;SDS011;2760;50.000;9.194;2023-01-04T04:30:01;4.67;;;3.30;;
5475;SDS011;2760;50.000;9.194;2023-01-04T04:32:28;5.50;;;3.27;;
5475;SDS011;2760;50.000;9.194;2023-01-04T04:34:55;3.70;;;3.40;;
5475;SDS011;2760;50.000;9.194;2023-01-04T04:37:22;3.80;;;2.90;;
5475;SDS011;2760;50.000;9.194;2023-01-04T04:39:51;4.60;;;2.93;;
5475;SDS011;2760;50.000;9.194;2023-01-04T04:42:18;4.50;;;2.70;;
5475;SDS011;2760;50.000;9.194;2023-01-04T04:44:45;3.43;;;3.13;;
5475;SDS011;2760;50.000;9.194;2023-01-04T04:47:12;4.90;;;3.10;;
5475;SDS011;2760;50.000;9.194;2023-01-04T04:49:39;4.13;;;3.40;;
5475;SDS011;2760;50.000;9.194;2023-01-04T04:52:07;3.47;;;3.13;;
5475;SDS011;2760;50.000;9.194;2023-01-04T04:54:34;3.77;;;3.47;;
5475;SDS011;2760;50.000;9.194;2023-01-04T04:57:01;2.90;;;2.70;;
5475;SDS011;2760;50.000;9.194;2023-01-04T04:59:29;6.77;;;3.67;;
5475;SDS011;2760;50.000;9.194;2023-01-04T05:01:57;4.53;;;3.10;;
5475;SDS011;2760;50.000;9.194;2023-01-04T05:04:24;5.80;;;2.90;;
5475;SDS011;2760;50.000;9.194;2023-01-04T05:06:51;6.90;;;3.00;;
5475;SDS011;2760;50.000;9.194;2023-01-04T05:09:18;3.47;;;2.90;;
5475;SDS011;2760;50.000;9.194;2023-01-04T05:11:45;4.40;;;2.90;;
5475;SDS011;2760;50.000;9.194;2023-01-04T05:14:29;5.57;;;2.83;;
5475;SDS011;2760;50.000;9.194;2023-01-04T05:16:57;4.43;;;3.13;;
5475;SDS011;2760;50.000;9.194;2023-01-04T05:19:24;4.37;;;2.70;;
5475;SDS011;2760;50.000;9.194;2023-01-04T05:21:51;7.10;;;2.60;;
5475;SDS011;2760;50.000;9.194;2023-01-04T05:24:18;7.13;;;2.53;;
5475;SDS011;2760;50.000;9.194;2023-01-04T05:26:45;4.43;;;2.60;;
5475;SDS011;2760;50.000;9.194;2023-01-04T05:29:12;8.53;;;2.87;;
5475;SDS011;2760;50.000;9.194;2023-01-04T05:32:00;3.80;;;3.03;;
5475;SDS011;2760;50.000;9.194;2023-01-04T05:34:26;7.80;;;2.97;;
5475;SDS011;2760;50.000;9.194;2023-01-04T05:36:53;4.17;;;2.23;;
5475;SDS011;2760;50.000;9.194;2023-01-04T05:39:20;8.97;;;3.00;;
5475;SDS011;2760;50.000;9.194;2023-01-04T05:41:47;3.00;;;2.80;;
5475;SDS011;2760;50.000;9.194;2023-01-04T05:44:31;4.60;;;2.50;;
5475;SDS011;2760;50.000;9.194;2023-01-04T05:46:58;4.60;;;2.80;;
5475;SDS011;2760;50.000;9.194;2023-01-04T05:49:26;4.03;;;2.87;;
5475;SDS011;2760;50.000;9.194;2023-01-04T05:51:53;7.50;;;2.60;;
5475;SDS011;2760;50.000;9.194;2023-01-04T05:54:20;4.93;;;2.37;;
5475;SDS011;2760;50.000;9.194;2023-01-04T05:56:47;2.70;;;2.50;;
5475;SDS011;2760;50.000;9.194;2023-01-04T05:59:14;3.37;;;2.20;;
5475;SDS011;2760;50.000;9.194;2023-01-04T06:01:41;3.60;;;2.80;;
5475;SDS011;2760;50.000;9.194;2023-01-04T06:04:10;2.67;;;2.47;;
5475;SDS011;2760;50.000;9.194;2023-01-04T06:06:37;4.63;;;2.60;;
5475;SDS011;2760;50.000;9.194;2023-01-04T06:09:04;3.73;;;2.60;;
5475;SDS011;2760;50.000;9.194;2023-01-04T06:11:31;4.30;;;2.63;;
5475;SDS011;2760;50.000;9.194;2023-01-04T06:13:58;3.60;;;2.47;;
5475;SDS011;2760;50.000;9.194;2023-01-04T06:16:25;4.83;;;2.70;;
5475;SDS011;2760;50.000;9.194;2023-01-04T06:18:53;4.33;;;2.60;;
5475;SDS011;2760;50.000;9.194;2023-01-04T06:21:22;2.50;;;2.30;;
5475;SDS011;2760;50.000;9.194;2023-01-04T06:23:49;2.50;;;2.30;;
5475;SDS011;2760;50.000;9.194;2023-01-04T06:26:16;3.93;;;2.43;;
5475;SDS011;2760;50.000;9.194;2023-01-04T06:28:43;8.37;;;3.07;;
5475;SDS011;2760;50.000;9.194;2023-01-04T06:31:10;3.40;;;2.73;;
5475;SDS011;2760;50.000;9.194;2023-01-04T06:33:38;6.83;;;2.80;;
5475;SDS011;2760;50.000;9.194;2023-01-04T06:36:06;4.30;;;2.67;;
5475;SDS011;2760;50.000;9.194;2023-01-04T06:38:34;3.43;;;3.00;;
5475;SDS011;2760;50.000;9.194;2023-01-04T06:41:01;3.87;;;2.33;;
5475;SDS011;2760;50.000;9.194;2023-01-04T06:43:31;2.90;;;2.60;;
5475;SDS011;2760;50.000;9.194;2023-01-04T06:45:58;6.47;;;3.13;;
5475;SDS011;2760;50.000;9.194;2023-01-04T06:48:25;5.47;;;3.30;;
5475;SDS011;2760;50.000;9.194;2023-01-04T06:50:52;5.40;;;3.60;;
5475;SDS011;2760;50.000;9.194;2023-01-04T06:53:20;6.43;;;3.27;;
5475;SDS011;2760;50.000;9.194;2023-01-04T06:55:48;4.20;;;3.00;;
5475;SDS011;2760;50.000;9.194;2023-01-04T06:58:15;4.60;;;3.10;;
5475;SDS011;2760;50.000;9.194;2023-01-04T07:00:43;3.00;;;2.70;;
5475;SDS011;2760;50.000;9.194;2023-01-04T07:03:11;2.97;;;2.67;;
5475;SDS011;2760;50.000;9.194;2023-01-04T07:05:39;5.53;;;3.40;;
5475;SDS011;2760;50.000;9.194;2023-01-04T07:08:06;8.50;;;3.00;;
5475;SDS011;2760;50.000;9.194;2023-01-04T07:10:33;7.07;;;3.27;;
5475;SDS011;2760;50.000;9.194;2023-01-04T07:13:01;4.77;;;3.10;;
5475;SDS011;2760;50.000;9.194;2023-01-04T07:15:28;3.20;;;2.90;;
5475;SDS011;2760;50.000;9.194;2023-01-04T07:17:55;8.40;;;3.63;;
5475;SDS011;2760;50.000;9.194;2023-01-04T07:20:24;5.43;;;3.40;;
5475;SDS011;2760;50.000;9.194;2023-01-04T07:22:51;6.37;;;3.70;;
5475;SDS011;2760;50.000;9.194;2023-01-04T07:25:18;4.00;;;3.20;;
5475;SDS011;2760;50.000;9.194;2023-01-04T07:27:49;4.60;;;3.13;;
5475;SDS011;2760;50.000;9.194;2023-01-04T07:30:18;4.20;;;2.50;;
5475;SDS011;2760;50.000;9.194;2023-01-04T07:32:45;4.87;;;3.50;;
5475;SDS011;2760;50.000;9.194;2023-01-04T07:35:12;5.63;;;3.03;;
5475;SDS011;2760;50.000;9.194;2023-01-04T07:37:41;5.37;;;4.20;;
5475;SDS011;2760;50.000;9.194;2023-01-04T07:40:09;3.80;;;3.23;;
5475;SDS011;2760;50.000;9.194;2023-01-04T07:42:37;5.83;;;3.10;;
5475;SDS011;2760;50.000;9.194;2023-01-04T07:45:05;10.30;;;3.10;;
5475;SDS011;2760;50.000;9.194;2023-01-04T07:47:34;8.60;;;3.20;;
5475;SDS011;2760;50.000;9.194;2023-01-04T07:50:01;5.90;;;2.77;;
5475;SDS011;2760;50.000;9.194;2023-01-04T07:52:28;8.70;;;3.33;;
5475;SDS011;2760;50.000;9.194;2023-01-04T07:54:55;6.20;;;3.03;;
5475;SDS011;2760;50.000;9.194;2023-01-04T07:57:22;6.20;;;3.03;;
5475;SDS011;2760;50.000;9.194;2023-01-04T07:59:49;4.37;;;2.60;;
5475;SDS011;2760;50.000;9.194;2023-01-04T08:02:16;3.30;;;2.30;;
5475;SDS011;2760;50.000;9.194;2023-01-04T08:04:45;5.77;;;3.17;;
5475;SDS011;2760;50.000;9.194;2023-01-04T08:07:12;5.47;;;2.80;;
5475;SDS011;2760;50.000;9.194;2023-01-04T08:09:39;7.20;;;3.10;;
5475;SDS011;2760;50.000;9.194;2023-01-04T08:12:07;4.07;;;2.90;;
5475;SDS011;2760;50.000;9.194;2023-01-04T08:14:34;4.93;;;2.70;;
5475;SDS011;2760;50.000;9.194;2023-01-04T08:17:01;6.33;;;2.87;;
5475;SDS011;2760;50.000;9.194;2023-01-04T08:19:28;4.50;;;2.93;;
5475;SDS011;2760;50.000;9.194;2023-01-04T08:21:57;3.10;;;2.60;;
5475;SDS011;2760;50.000;9.194;2023-01-04T08:24:24;8.90;;;3.07;;
5475;SDS011;2760;50.000;9.194;2023-01-04T08:26:51;4.80;;;3.00;;
5475;SDS011;2760;50.000;9.194;2023-01-04T08:29:19;3.83;;;2.93;;
5475;SDS011;2760;50.000;9.194;2023-01-04T08:31:46;8.43;;;3.53;;
5475;SDS011;2760;50.000;9.194;2023-01-04T08:34:13;3.20;;;2.97;;
5475;SDS011;2760;50.000;9.194;2023-01-04T08:36:44;3.10;;;2.80;;
5475;SDS011;2760;50.000;9.194;2023-01-04T08:39:14;4.60;;;2.80;;
5475;SDS011;2760;50.000;9.194;2023-01-04T08:41:41;7.60;;;3.10;;
5475;SDS011;2760;50.000;9.194;2023-01-04T08:44:18;5.23;;;2.83;;
5475;SDS011;2760;50.000;9.194;2023-01-04T08:46:47;3.73;;;3.23;;
5475;SDS011;2760;50.000;9.194;2023-01-04T08:49:14;3.60;;;3.00;;
5475;SDS011;2760;50.000;9.194;2023-01-04T08:51:42;2.70;;;2.50;;
5475;SDS011;2760;50.000;9.194;2023-01-04T08:54:09;3.23;;;2.63;;
5475;SDS011;2760;50.000;9.194;2023-01-04T08:56:39;3.17;;;2.83;;
5475;SDS011;2760;50.000;9.194;2023-01-04T08:59:06;4.40;;;2.80;;
5475;SDS011;2760;50.000;9.194;2023-01-04T09:01:34;6.13;;;3.00;;
5475;SDS011;2760;50.000;9.194;2023-01-04T09:04:01;4.67;;;2.70;;
5475;SDS011;2760;50.000;9.194;2023-01-04T09:06:29;2.90;;;2.50;;
5475;SDS011;2760;50.000;9.194;2023-01-04T09:08:57;3.77;;;2.80;;
5475;SDS011;2760;50.000;9.194;2023-01-04T09:11:24;2.70;;;2.50;;
5475;SDS011;2760;50.000;9.194;2023-01-04T09:13:55;3.43;;;2.70;;
5475;SDS011;2760;50.000;9.194;2023-01-04T09:16:23;3.47;;;2.60;;
5475;SDS011;2760;50.000;9.194;2023-01-04T09:18:50;3.07;;;2.77;;
5475;SDS011;2760;50.000;9.194;2023-01-04T09:21:19;2.80;;;2.60;;
5475;SDS011;2760;50.000;9.194;2023-01-04T09:23:47;5.90;;;3.10;;
5475;SDS011;2760;50.000;9.194;2023-01-04T09:26:14;7.47;;;3.00;;
5475;SDS011;2760;50.000;9.194;2023-01-04T09:28:43;3.50;;;2.77;;
5475;SDS011;2760;50.000;9.194;2023-01-04T09:31:12;6.73;;;2.80;;
5475;SDS011;2760;50.000;9.194;2023-01-04T09:33:40;3.20;;;3.00;;
5475;SDS011;2760;50.000;9.194;2023-01-04T09:36:10;2.63;;;2.43;;
5475;SDS011;2760;50.000;9.194;2023-01-04T09:38:39;5.50;;;3.47;;
5475;SDS011;2760;50.000;9.194;2023-01-04T09:41:10;6.73;;;3.47;;
5475;SDS011;2760;50.000;9.194;2023-01-04T09:43:46;2.73;;;2.53;;
5475;SDS011;2760;50.000;9.194;2023-01-04T09:46:19;4.67;;;2.80;;
5475;SDS011;2760;50.000;9.194;2023-01-04T09:48:54;4.37;;;3.23;;
5475;SDS011;2760;50.000;9.194;2023-01-04T09:51:27;5.50;;;3.20;;
5475;SDS011;2760;50.000;9.194;2023-01-04T09:54:00;4.83;;;3.20;;
5475;SDS011;2760;50.000;9.194;2023-01-04T09:56:32;3.10;;;2.90;;
5475;SDS011;2760;50.000;9.194;2023-01-04T09:59:02;3.23;;;2.47;;
5475;SDS011;2760;50.000;9.194;2023-01-04T10:01:38;2.70;;;2.50;;
5475;SDS011;2760;50.000;9.194;2023-01-04T10:04:12;3.00;;;2.70;;
5475;SDS011;2760;50.000;9.194;2023-01-04T10:06:44;2.93;;;2.63;;
5475;SDS011;2760;50.000;9.194;2023-01-04T10:09:12;3.30;;;2.60;;
5475;SDS011;2760;50.000;9.194;2023-01-04T10:11:44;3.13;;;2.80;;
5475;SDS011;2760;50.000;9.194;2023-01-04T10:14:33;3.43;;;2.70;;
5475;SDS011;2760;50.000;9.194;2023-01-04T10:17:16;3.20;;;2.40;;
5475;SDS011;2760;50.000;9.194;2023-01-04T10:19:56;3.17;;;2.20;;
5475;SDS011;2760;50.000;9.194;2023-01-04T10:22:31;2.73;;;2.53;;
5475;SDS011;2760;50.000;9.194;2023-01-04T10:25:16;2.07;;;1.97;;
5475;SDS011;2760;50.000;9.194;2023-01-04T10:27:51;2.93;;;2.03;;
5475;SDS011;2760;50.000;9.194;2023-01-04T10:30:28;2.30;;;2.00;;
5475;SDS011;2760;50.000;9.194;2023-01-04T10:33:03;6.20;;;2.50;;
5475;SDS011;2760;50.000;9.194;2023-01-04T10:35:36;2.20;;;1.73;;
5475;SDS011;2760;50.000;9.194;2023-01-04T10:38:09;2.70;;;2.50;;
5475;SDS011;2760;50.000;9.194;2023-01-04T10:40:41;2.40;;;2.20;;
5475;SDS011;2760;50.000;9.194;2023-01-04T10:43:12;3.43;;;2.10;;
5475;SDS011;2760;50.000;9.194;2023-01-04T10:45:45;2.70;;;2.20;;
5475;SDS011;2760;50.000;9.194;2023-01-04T10:48:19;2.23;;;2.03;;
5475;SDS011;2760;50.000;9.194;2023-01-04T10:50:52;3.80;;;1.50;;
5475;SDS011;2760;50.000;9.194;2023-01-04T10:53:22;2.73;;;2.50;;
5475;SDS011;2760;50.000;9.194;2023-01-04T10:55:56;3.00;;;1.80;;
5475;SDS011;2760;50.000;9.194;2023-01-04T10:58:28;2.00;;;1.90;;
5475;SDS011;2760;50.000;9.194;2023-01-04T11:01:02;1.73;;;1.63;;
5475;SDS011;2760;50.000;9.194;2023-01-04T11:03:34;2.30;;;2.10;;
5475;SDS011;2760;50.000;9.194;2023-01-04T11:06:06;4.03;;;2.00;;
5475;SDS011;2760;50.000;9.194;2023-01-04T11:08:42;2.00;;;1.90;;
5475;SDS011;2760;50.000;9.194;2023-01-04T11:11:13;2.27;;;2.07;;
5475;SDS011;2760;50.000;9.194;2023-01-04T11:13:46;1.63;;;1.53;;
5475;SDS011;2760;50.000;9.194;2023-01-04T11:16:14;4.90;;;2.13;;
5475;SDS011;2760;50.000;9.194;2023-01-04T11:18:43;3.93;;;1.90;;
5475;SDS011;2760;50.000;9.194;2023-01-04T11:21:17;3.20;;;2.23;;
5475;SDS011;2760;50.000;9.194;2023-01-04T11:23:47;3.17;;;2.03;;
5475;SDS011;2760;50.000;9.194;2023-01-04T11:26:16;2.60;;;2.33;;
5475;SDS011;2760;50.000;9.194;2023-01-04T11:28:46;6.47;;;4.27;;
5475;SDS011;2760;50.000;9.194;2023-01-04T11:31:20;1.90;;;1.80;;
5475;SDS011;2760;50.000;9.194;2023-01-04T11:33:54;8.23;;;2.10;;
5475;SDS011;2760;50.000;9.194;2023-01-04T11:36:31;4.37;;;2.20;;
5475;SDS011;2760;50.000;9.194;2023-01-04T11:39:02;4.00;;;2.00;;
5475;SDS011;2760;50.000;9.194;2023-01-04T11:41:29;5.93;;;2.30;;
5475;SDS011;2760;50.000;9.194;2023-01-04T11:43:57;3.40;;;2.47;;
5475;SDS011;2760;50.000;9.194;2023-01-04T11:46:26;2.03;;;1.80;;
5475;SDS011;2760;50.000;9.194;2023-01-04T11:48:55;2.40;;;1.70;;
5475;SDS011;2760;50.000;9.194;2023-01-04T11:51:33;5.33;;;1.97;;
5475;SDS011;2760;50.000;9.194;2023-01-04T11:54:04;1.93;;;1.83;;
5475;SDS011;2760;50.000;9.194;2023-01-04T11:56:56;2.40;;;1.70;;
5475;SDS011;2760;50.000;9.194;2023-01-04T11:59:24;5.37;;;2.33;;
5475;SDS011;2760;50.000;9.194;2023-01-04T12:04:45;2.70;;;2.30;;
5475;SDS011;2760;50.000;9.194;2023-01-04T12:07:17;2.30;;;2.20;;
5475;SDS011;2760;50.000;9.194;2023-01-04T12:09:52;5.70;;;2.23;;
5475;SDS011;2760;50.000;9.194;2023-01-04T12:12:19;3.33;;;2.43;;
5475;SDS011;2760;50.000;9.194;2023-01-04T12:14:48;3.63;;;2.53;;
5475;SDS011;2760;50.000;9.194;2023-01-04T12:17:17;3.20;;;2.33;;
5475;SDS011;2760;50.000;9.194;2023-01-04T12:19:48;4.20;;;2.43;;
5475;SDS011;2760;50.000;9.194;2023-01-04T12:22:19;3.03;;;1.93;;
5475;SDS011;2760;50.000;9.194;2023-01-04T12:24:50;4.13;;;2.20;;
5475;SDS011;2760;50.000;9.194;2023-01-04T12:27:18;2.40;;;1.90;;
5475;SDS011;2760;50.000;9.194;2023-01-04T12:29:53;4.13;;;2.40;;
5475;SDS011;2760;50.000;9.194;2023-01-04T12:47:46;1.67;;;1.57;;
5475;SDS011;2760;50.000;9.194;2023-01-04T12:50:33;2.60;;;2.40;;
5475;SDS011;2760;50.000;9.194;2023-01-04T12:53:49;2.47;;;2.10;;
5475;SDS011;2760;50.000;9.194;2023-01-04T12:56:19;1.90;;;1.80;;
5475;SDS011;2760;50.000;9.194;2023-01-04T13:01:32;2.20;;;2.00;;
5475;SDS011;2760;50.000;9.194;2023-01-04T13:04:01;9.73;;;2.40;;
5475;SDS011;2760;50.000;9.194;2023-01-04T13:06:49;2.13;;;1.93;;
5475;SDS011;2760;50.000;9.194;2023-01-04T13:09:18;2.00;;;1.90;;
5475;SDS011;2760;50.000;9.194;2023-01-04T13:11:53;7.13;;;2.23;;
5475;SDS011;2760;50.000;9.194;2023-01-04T13:14:30;2.37;;;2.10;;
5475;SDS011;2760;50.000;9.194;2023-01-04T13:19:50;2.70;;;2.50;;
5475;SDS011;2760;50.000;9.194;2023-01-04T13:22:18;3.37;;;2.07;;
5475;SDS011;2760;50.000;9.194;2023-01-04T13:24:51;2.73;;;2.20;;
5475;SDS011;2760;50.000;9.194;2023-01-04T13:27:22;3.00;;;2.10;;
5475;SDS011;2760;50.000;9.194;2023-01-04T13:29:50;3.47;;;2.30;;
5475;SDS011;2760;50.000;9.194;2023-01-04T13:32:21;4.47;;;2.30;;
5475;SDS011;2760;50.000;9.194;2023-01-04T13:34:50;7.47;;;2.50;;
5475;SDS011;2760;50.000;9.194;2023-01-04T13:37:25;10.80;;;2.40;;
5475;SDS011;2760;50.000;9.194;2023-01-04T13:40:00;4.40;;;2.47;;
5475;SDS011;2760;50.000;9.194;2023-01-04T13:42:42;2.60;;;2.40;;
5475;SDS011;2760;50.000;9.194;2023-01-04T13:45:23;4.40;;;2.50;;
5475;SDS011;2760;50.000;9.194;2023-01-04T13:48:11;4.37;;;2.27;;
5475;SDS011;2760;50.000;9.194;2023-01-04T13:50:40;4.30;;;2.97;;
5475;SDS011;2760;50.000;9.194;2023-01-04T13:53:18;6.70;;;2.53;;
5475;SDS011;2760;50.000;9.194;2023-01-04T13:55:50;2.80;;;2.60;;
5475;SDS011;2760;50.000;9.194;2023-01-04T13:58:20;3.20;;;2.13;;
5475;SDS011;2760;50.000;9.194;2023-01-04T14:00:49;4.77;;;2.60;;
5475;SDS011;2760;50.000;9.194;2023-01-04T14:03:33;3.97;;;2.87;;
5475;SDS011;2760;50.000;9.194;2023-01-04T14:06:22;2.97;;;2.63;;
5475;SDS011;2760;50.000;9.194;2023-01-04T14:08:57;2.53;;;2.33;;
5475;SDS011;2760;50.000;9.194;2023-01-04T14:11:27;6.20;;;3.03;;
5475;SDS011;2760;50.000;9.194;2023-01-04T14:14:30;3.43;;;2.50;;
5475;SDS011;2760;50.000;9.194;2023-01-04T14:17:12;9.90;;;2.77;;
5475;SDS011;2760;50.000;9.194;2023-01-04T14:19:44;3.00;;;2.77;;
5475;SDS011;2760;50.000;9.194;2023-01-04T14:28:16;3.40;;;2.60;;
5475;SDS011;2760;50.000;9.194;2023-01-04T14:33:47;4.17;;;2.40;;
5475;SDS011;2760;50.000;9.194;2023-01-04T14:36:17;3.30;;;3.10;;
5475;SDS011;2760;50.000;9.194;2023-01-04T14:38:48;3.00;;;2.80;;
5475;SDS011;2760;50.000;9.194;2023-01-04T14:41:26;4.00;;;2.80;;
5475;SDS011;2760;50.000;9.194;2023-01-04T14:44:06;3.90;;;2.50;;
5475;SDS011;2760;50.000;9.194;2023-01-04T14:46:37;3.40;;;3.10;;
5475;SDS011;2760;50.000;9.194;2023-01-04T14:49:06;3.23;;;2.93;;
5475;SDS011;2760;50.000;9.194;2023-01-04T14:51:35;4.33;;;2.97;;
5475;SDS011;2760;50.000;9.194;2023-01-04T14:54:05;4.00;;;3.00;;
5475;SDS011;2760;50.000;9.194;2023-01-04T14:56:32;2.63;;;2.53;;
5475;SDS011;2760;50.000;9.194;2023-01-04T14:59:00;3.83;;;2.43;;
5475;SDS011;2760;50.000;9.194;2023-01-04T15:01:27;3.93;;;2.80;;
5475;SDS011;2760;50.000;9.194;2023-01-04T15:03:55;7.10;;;2.70;;
5475;SDS011;2760;50.000;9.194;2023-01-04T15:06:22;7.50;;;2.90;;
5475;SDS011;2760;50.000;9.194;2023-01-04T15:08:49;2.70;;;2.50;;
5475;SDS011;2760;50.000;9.194;2023-01-04T15:11:16;2.80;;;2.60;;
5475;SDS011;2760;50.000;9.194;2023-01-04T15:13:44;3.20;;;2.83;;
5475;SDS011;2760;50.000;9.194;2023-01-04T15:16:12;2.77;;;2.57;;
5475;SDS011;2760;50.000;9.194;2023-01-04T15:18:41;4.13;;;2.60;;
5475;SDS011;2760;50.000;9.194;2023-01-04T15:21:10;4.00;;;3.30;;
5475;SDS011;2760;50.000;9.194;2023-01-04T15:23:38;4.30;;;3.13;;
5475;SDS011;2760;50.000;9.194;2023-01-04T15:26:06;5.10;;;3.80;;
5475;SDS011;2760;50.000;9.194;2023-01-04T15:28:34;4.00;;;3.57;;
5475;SDS011;2760;50.000;9.194;2023-01-04T15:31:04;5.13;;;3.10;;
5475;SDS011;2760;50.000;9.194;2023-01-04T15:33:32;2.97;;;2.70;;
5475;SDS011;2760;50.000;9.194;2023-01-04T15:36:00;2.67;;;2.53;;
5475;SDS011;2760;50.000;9.194;2023-01-04T15:38:29;3.40;;;2.40;;
5475;SDS011;2760;50.000;9.194;2023-01-04T15:41:01;4.13;;;3.00;;
5475;SDS011;2760;50.000;9.194;2023-01-04T15:43:29;4.30;;;2.13;;
5475;SDS011;2760;50.000;9.194;2023-01-04T15:46:00;2.47;;;2.27;;
5475;SDS011;2760;50.000;9.194;2023-01-04T15:48:28;3.33;;;2.40;;
5475;SDS011;2760;50.000;9.194;2023-01-04T15:50:55;6.80;;;2.60;;
5475;SDS011;2760;50.000;9.194;2023-01-04T15:53:27;4.13;;;2.47;;
5475;SDS011;2760;50.000;9.194;2023-01-04T15:56:03;2.33;;;2.07;;
5475;SDS011;2760;50.000;9.194;2023-01-04T15:58:31;3.33;;;1.80;;
5475;SDS011;2760;50.000;9.194;2023-01-04T16:00:58;2.97;;;2.70;;
5475;SDS011;2760;50.000;9.194;2023-01-04T16:03:25;2.20;;;2.10;;
5475;SDS011;2760;50.000;9.194;2023-01-04T16:05:52;4.43;;;2.30;;
5475;SDS011;2760;50.000;9.194;2023-01-04T16:08:19;1.60;;;1.50;;
5475;SDS011;2760;50.000;9.194;2023-01-04T16:10:46;2.20;;;2.07;;
5475;SDS011;2760;50.000;9.194;2023-01-04T16:13:14;2.90;;;1.97;;
5475;SDS011;2760;50.000;9.194;2023-01-04T16:15:41;3.87;;;1.80;;